sensor_id;sensor_type;location;lat;lon;timestamp;pressure;altitude;pressure_sealevel;temperature;humidity
10097;BME280;5087;42.662;23.466;2023-09-19T00:00:26;65339.31;;;-149.02;100.00
10097;BME280;5087;42.662;23.466;2023-09-19T00:02:54;65339.31;;;-149.02;100.00
10097;BME280;5087;42.662;23.466;2023-09-19T00:05:25;65339.31;;;-149.02;100.00
10097;BME280;5087;42.662;23.466;2023-09-19T00:07:54;65339.31;;;-149.02;100.00
10097;BME280;5087;42.662;23.466;2023-09-19T00:10:21;65339.31;;;-149.02;100.00
10097;BME280;5087;42.662;23.466;2023-09-19T00:12:50;65339.31;;;-149.02;100.00
10097;BME280;5087;42.662;23.466;2023-09-19T00:15:23;65339.31;;;-149.02;100.00
10097;BME280;5087;42.662;23.466;2023-09-19T00:17:52;65339.31;;;-149.02;100.00
10097;BME280;5087;42.662;23.466;2023-09-19T00:20:22;65339.31;;;-149.02;100.00
10097;BME280;5087;42.662;23.466;2023-09-19T00:22:50;65339.31;;;-149.02;100.00
10097;BME280;5087;42.662;23.466;2023-09-19T00:25:22;65339.31;;;-149.02;100.00
10097;BME280;5087;42.662;23.466;2023-09-19T00:27:49;65339.31;;;-149.02;100.00
10097;BME280;5087;42.662;23.466;2023-09-19T00:30:17;65339.31;;;-149.02;100.00
10097;BME280;5087;42.662;23.466;2023-09-19T00:32:50;65339.31;;;-149.02;100.00
10097;BME280;5087;42.662;23.466;2023-09-19T00:35:19;65339.31;;;-149.02;100.00
10097;BME280;5087;42.662;23.466;2023-09-19T00:37:49;65339.31;;;-149.02;100.00
10097;BME280;5087;42.662;23.466;2023-09-19T00:40:16;65339.31;;;-149.02;100.00
10097;BME280;5087;42.662;23.466;2023-09-19T00:42:44;65339.31;;;-149.02;100.00
10097;BME280;5087;42.662;23.466;2023-09-19T00:45:13;65339.31;;;-149.02;100.00
10097;BME280;5087;42.662;23.466;2023-09-19T00:47:44;65339.31;;;-149.02;100.00
10097;BME280;5087;42.662;23.466;2023-09-19T00:50:15;65339.31;;;-149.02;100.00
10097;BME280;5087;42.662;23.466;2023-09-19T00:52:44;65339.31;;;-149.02;100.00
10097;BME280;5087;42.662;23.466;2023-09-19T00:55:15;65339.31;;;-149.02;100.00
10097;BME280;5087;42.662;23.466;2023-09-19T00:57:45;65339.31;;;-149.02;100.00
10097;BME280;5087;42.662;23.466;2023-09-19T01:00:15;65339.31;;;-149.02;100.00
10097;BME280;5087;42.662;23.466;2023-09-19T01:02:45;65339.31;;;-149.02;100.00
10097;BME280;5087;42.662;23.466;2023-09-19T01:05:14;65339.31;;;-149.02;100.00
10097;BME280;5087;42.662;23.466;2023-09-19T01:07:44;65339.31;;;-149.02;100.00
10097;BME280;5087;42.662;23.466;2023-09-19T01:10:17;65339.31;;;-149.02;100.00
10097;BME280;5087;42.662;23.466;2023-09-19T01:12:52;65339.31;;;-149.02;100.00
10097;BME280;5087;42.662;23.466;2023-09-19T01:15:30;65339.31;;;-149.02;100.00
10097;BME280;5087;42.662;23.466;2023-09-19T01:18:05;65339.31;;;-149.02;100.00
10097;BME280;5087;42.662;23.466;2023-09-19T01:20:45;65339.31;;;-149.02;100.00
10097;BME280;5087;42.662;23.466;2023-09-19T01:23:24;65339.31;;;-149.02;100.00
10097;BME280;5087;42.662;23.466;2023-09-19T01:26:06;65339.31;;;-149.02;100.00
10097;BME280;5087;42.662;23.466;2023-09-19T01:28:45;65339.31;;;-149.02;100.00
10097;BME280;5087;42.662;23.466;2023-09-19T01:31:22;65339.31;;;-149.02;100.00
10097;BME280;5087;42.662;23.466;2023-09-19T01:33:54;65339.31;;;-149.02;100.00
10097;BME280;5087;42.662;23.466;2023-09-19T01:36:30;65339.31;;;-149.02;100.00
10097;BME280;5087;42.662;23.466;2023-09-19T01:38:58;65339.31;;;-149.02;100.00
10097;BME280;5087;42.662;23.466;2023-09-19T01:41:44;65339.31;;;-149.02;100.00
10097;BME280;5087;42.662;23.466;2023-09-19T01:44:19;65339.31;;;-149.02;100.00
10097;BME280;5087;42.662;23.466;2023-09-19T01:46:51;65339.31;;;-149.02;100.00
10097;BME280;5087;42.662;23.466;2023-09-19T01:49:27;65339.31;;;-149.02;100.00
10097;BME280;5087;42.662;23.466;2023-09-19T01:52:04;65339.31;;;-149.02;100.00
10097;BME280;5087;42.662;23.466;2023-09-19T01:54:34;65339.31;;;-149.02;100.00
10097;BME280;5087;42.662;23.466;2023-09-19T01:57:09;65339.31;;;-149.02;100.00
10097;BME280;5087;42.662;23.466;2023-09-19T01:59:43;65339.31;;;-149.02;100.00
10097;BME280;5087;42.662;23.466;2023-09-19T02:02:15;65339.31;;;-149.02;100.00
10097;BME280;5087;42.662;23.466;2023-09-19T02:04:44;65339.31;;;-149.02;100.00
10097;BME280;5087;42.662;23.466;2023-09-19T02:07:12;65339.31;;;-149.02;100.00
10097;BME280;5087;42.662;23.466;2023-09-19T02:09:41;65339.31;;;-149.02;100.00
10097;BME280;5087;42.662;23.466;2023-09-19T02:12:09;65339.31;;;-149.02;100.00
10097;BME280;5087;42.662;23.466;2023-09-19T02:14:36;65339.31;;;-149.02;100.00
10097;BME280;5087;42.662;23.466;2023-09-19T02:17:04;65339.31;;;-149.02;100.00
10097;BME280;5087;42.662;23.466;2023-09-19T02:19:34;65339.31;;;-149.02;100.00
10097;BME280;5087;42.662;23.466;2023-09-19T02:22:04;65339.31;;;-149.02;100.00
10097;BME280;5087;42.662;23.466;2023-09-19T02:24:33;65339.31;;;-149.02;100.00
10097;BME280;5087;42.662;23.466;2023-09-19T02:27:01;65339.31;;;-149.02;100.00
10097;BME280;5087;42.662;23.466;2023-09-19T02:29:31;65339.31;;;-149.02;100.00
10097;BME280;5087;42.662;23.466;2023-09-19T02:32:00;65339.31;;;-149.02;100.00
10097;BME280;5087;42.662;23.466;2023-09-19T02:34:28;65339.31;;;-149.02;100.00
10097;BME280;5087;42.662;23.466;2023-09-19T02:36:58;65339.31;;;-149.02;100.00
10097;BME280;5087;42.662;23.466;2023-09-19T02:39:25;65339.31;;;-149.02;100.00
10097;BME280;5087;42.662;23.466;2023-09-19T02:41:53;65339.31;;;-149.02;100.00
10097;BME280;5087;42.662;23.466;2023-09-19T02:44:21;65339.31;;;-149.02;100.00
10097;BME280;5087;42.662;23.466;2023-09-19T02:46:50;65339.31;;;-149.02;100.00
10097;BME280;5087;42.662;23.466;2023-09-19T02:49:17;65339.31;;;-149.02;100.00
10097;BME280;5087;42.662;23.466;2023-09-19T02:51:45;65339.31;;;-149.02;100.00
10097;BME280;5087;42.662;23.466;2023-09-19T02:54:14;65339.31;;;-149.02;100.00
10097;BME280;5087;42.662;23.466;2023-09-19T02:56:43;65339.31;;;-149.02;100.00
10097;BME280;5087;42.662;23.466;2023-09-19T02:59:11;65339.31;;;-149.02;100.00
10097;BME280;5087;42.662;23.466;2023-09-19T03:01:38;65339.31;;;-149.02;100.00
10097;BME280;5087;42.662;23.466;2023-09-19T03:04:06;65339.31;;;-149.02;100.00
10097;BME280;5087;42.662;23.466;2023-09-19T03:06:35;65339.31;;;-149.02;100.00
10097;BME280;5087;42.662;23.466;2023-09-19T03:09:04;65339.31;;;-149.02;100.00
10097;BME280;5087;42.662;23.466;2023-09-19T03:11:41;65339.31;;;-149.02;100.00
10097;BME280;5087;42.662;23.466;2023-09-19T03:14:08;65339.31;;;-149.02;100.00
10097;BME280;5087;42.662;23.466;2023-09-19T03:16:38;65339.31;;;-149.02;100.00
10097;BME280;5087;42.662;23.466;2023-09-19T03:19:06;65339.31;;;-149.02;100.00
10097;BME280;5087;42.662;23.466;2023-09-19T03:21:33;65339.31;;;-149.02;100.00
10097;BME280;5087;42.662;23.466;2023-09-19T03:24:01;65339.31;;;-149.02;100.00
10097;BME280;5087;42.662;23.466;2023-09-19T03:26:29;65339.31;;;-149.02;100.00
10097;BME280;5087;42.662;23.466;2023-09-19T03:28:58;65339.31;;;-149.02;100.00
10097;BME280;5087;42.662;23.466;2023-09-19T03:31:25;65339.31;;;-149.02;100.00
10097;BME280;5087;42.662;23.466;2023-09-19T03:33:56;65339.31;;;-149.02;100.00
10097;BME280;5087;42.662;23.466;2023-09-19T03:36:23;65339.31;;;-149.02;100.00
10097;BME280;5087;42.662;23.466;2023-09-19T03:38:51;65339.31;;;-149.02;100.00
10097;BME280;5087;42.662;23.466;2023-09-19T03:41:21;65339.31;;;-149.02;100.00
10097;BME280;5087;42.662;23.466;2023-09-19T03:43:48;65339.31;;;-149.02;100.00
10097;BME280;5087;42.662;23.466;2023-09-19T03:46:16;65339.31;;;-149.02;100.00
10097;BME280;5087;42.662;23.466;2023-09-19T03:48:44;65339.31;;;-149.02;100.00
10097;BME280;5087;42.662;23.466;2023-09-19T03:51:11;65339.31;;;-149.02;100.00
10097;BME280;5087;42.662;23.466;2023-09-19T03:53:38;65339.31;;;-149.02;100.00
10097;BME280;5087;42.662;23.466;2023-09-19T03:56:06;65339.31;;;-149.02;100.00
10097;BME280;5087;42.662;23.466;2023-09-19T03:58:33;65339.31;;;-149.02;100.00
10097;BME280;5087;42.662;23.466;2023-09-19T04:01:07;65339.31;;;-149.02;100.00
10097;BME280;5087;42.662;23.466;2023-09-19T04:03:36;65339.31;;;-149.02;100.00
10097;BME280;5087;42.662;23.466;2023-09-19T04:06:11;65339.31;;;-149.02;100.00
10097;BME280;5087;42.662;23.466;2023-09-19T04:08:39;65339.31;;;-149.02;100.00
10097;BME280;5087;42.662;23.466;2023-09-19T04:11:06;65339.31;;;-149.02;100.00
10097;BME280;5087;42.662;23.466;2023-09-19T04:13:33;65339.31;;;-149.02;100.00
10097;BME280;5087;42.662;23.466;2023-09-19T04:16:01;65339.31;;;-149.02;100.00
10097;BME280;5087;42.662;23.466;2023-09-19T04:18:29;65339.31;;;-149.02;100.00
10097;BME280;5087;42.662;23.466;2023-09-19T04:21:01;65339.31;;;-149.02;100.00
10097;BME280;5087;42.662;23.466;2023-09-19T04:23:30;65339.31;;;-149.02;100.00
10097;BME280;5087;42.662;23.466;2023-09-19T04:25:57;65339.31;;;-149.02;100.00
10097;BME280;5087;42.662;23.466;2023-09-19T04:28:24;65339.31;;;-149.02;100.00
10097;BME280;5087;42.662;23.466;2023-09-19T04:30:56;65339.31;;;-149.02;100.00
10097;BME280;5087;42.662;23.466;2023-09-19T04:33:23;65339.31;;;-149.02;100.00
10097;BME280;5087;42.662;23.466;2023-09-19T04:35:50;65339.31;;;-149.02;100.00
10097;BME280;5087;42.662;23.466;2023-09-19T04:38:22;65339.31;;;-149.02;100.00
10097;BME280;5087;42.662;23.466;2023-09-19T04:40:49;65339.31;;;-149.02;100.00
10097;BME280;5087;42.662;23.466;2023-09-19T04:43:17;65339.31;;;-149.02;100.00
10097;BME280;5087;42.662;23.466;2023-09-19T04:45:44;65339.31;;;-149.02;100.00
10097;BME280;5087;42.662;23.466;2023-09-19T04:48:12;65339.31;;;-149.02;100.00
10097;BME280;5087;42.662;23.466;2023-09-19T04:50:43;65339.31;;;-149.02;100.00
10097;BME280;5087;42.662;23.466;2023-09-19T04:53:10;65339.31;;;-149.02;100.00
10097;BME280;5087;42.662;23.466;2023-09-19T04:55:41;65339.31;;;-149.02;100.00
10097;BME280;5087;42.662;23.466;2023-09-19T04:58:09;65339.31;;;-149.02;100.00
10097;BME280;5087;42.662;23.466;2023-09-19T05:00:36;65339.31;;;-149.02;100.00
10097;BME280;5087;42.662;23.466;2023-09-19T05:03:04;65339.31;;;-149.02;100.00
10097;BME280;5087;42.662;23.466;2023-09-19T05:05:32;65339.31;;;-149.02;100.00
10097;BME280;5087;42.662;23.466;2023-09-19T05:08:00;65339.31;;;-149.02;100.00
10097;BME280;5087;42.662;23.466;2023-09-19T05:10:30;65339.31;;;-149.02;100.00
10097;BME280;5087;42.662;23.466;2023-09-19T05:12:59;65339.31;;;-149.02;100.00
10097;BME280;5087;42.662;23.466;2023-09-19T05:15:26;65339.31;;;-149.02;100.00
10097;BME280;5087;42.662;23.466;2023-09-19T05:17:54;65339.31;;;-149.02;100.00
10097;BME280;5087;42.662;23.466;2023-09-19T05:20:22;65339.31;;;-149.02;100.00
10097;BME280;5087;42.662;23.466;2023-09-19T05:22:59;65339.31;;;-149.02;100.00
10097;BME280;5087;42.662;23.466;2023-09-19T05:25:28;65339.31;;;-149.02;100.00
10097;BME280;5087;42.662;23.466;2023-09-19T05:27:58;65339.31;;;-149.02;100.00
10097;BME280;5087;42.662;23.466;2023-09-19T05:30:26;65339.31;;;-149.02;100.00
10097;BME280;5087;42.662;23.466;2023-09-19T05:32:55;65339.31;;;-149.02;100.00
10097;BME280;5087;42.662;23.466;2023-09-19T05:35:23;65339.31;;;-149.02;100.00
10097;BME280;5087;42.662;23.466;2023-09-19T05:37:51;65339.31;;;-149.02;100.00
10097;BME280;5087;42.662;23.466;2023-09-19T05:40:21;65339.31;;;-149.02;100.00
10097;BME280;5087;42.662;23.466;2023-09-19T05:42:49;65339.31;;;-149.02;100.00
10097;BME280;5087;42.662;23.466;2023-09-19T05:45:18;65339.31;;;-149.02;100.00
10097;BME280;5087;42.662;23.466;2023-09-19T05:47:48;65339.31;;;-149.02;100.00
10097;BME280;5087;42.662;23.466;2023-09-19T05:50:17;65339.31;;;-149.02;100.00
10097;BME280;5087;42.662;23.466;2023-09-19T05:52:52;65339.31;;;-149.02;100.00
10097;BME280;5087;42.662;23.466;2023-09-19T05:55:19;65339.31;;;-149.02;100.00
10097;BME280;5087;42.662;23.466;2023-09-19T05:57:49;65339.31;;;-149.02;100.00
10097;BME280;5087;42.662;23.466;2023-09-19T06:00:19;65339.31;;;-149.02;100.00
10097;BME280;5087;42.662;23.466;2023-09-19T06:02:50;65339.31;;;-149.02;100.00
10097;BME280;5087;42.662;23.466;2023-09-19T06:05:17;65339.31;;;-149.02;100.00
10097;BME280;5087;42.662;23.466;2023-09-19T06:07:46;65339.31;;;-149.02;100.00
10097;BME280;5087;42.662;23.466;2023-09-19T06:10:13;65339.31;;;-149.02;100.00
10097;BME280;5087;42.662;23.466;2023-09-19T06:12:40;65339.31;;;-149.02;100.00
10097;BME280;5087;42.662;23.466;2023-09-19T06:15:11;65339.31;;;-149.02;100.00
10097;BME280;5087;42.662;23.466;2023-09-19T06:17:42;65339.31;;;-149.02;100.00
10097;BME280;5087;42.662;23.466;2023-09-19T06:20:10;65339.31;;;-149.02;100.00
10097;BME280;5087;42.662;23.466;2023-09-19T06:22:40;65339.31;;;-149.02;100.00
10097;BME280;5087;42.662;23.466;2023-09-19T06:25:09;65339.31;;;-149.02;100.00
10097;BME280;5087;42.662;23.466;2023-09-19T06:27:38;65339.31;;;-149.02;100.00
10097;BME280;5087;42.662;23.466;2023-09-19T06:30:08;65339.31;;;-149.02;100.00
10097;BME280;5087;42.662;23.466;2023-09-19T06:32:35;65339.31;;;-149.02;100.00
10097;BME280;5087;42.662;23.466;2023-09-19T06:35:05;65339.31;;;-149.02;100.00
10097;BME280;5087;42.662;23.466;2023-09-19T06:37:34;65339.31;;;-149.02;100.00
10097;BME280;5087;42.662;23.466;2023-09-19T06:40:06;65339.31;;;-149.02;100.00
10097;BME280;5087;42.662;23.466;2023-09-19T06:42:34;65339.31;;;-149.02;100.00
10097;BME280;5087;42.662;23.466;2023-09-19T06:45:04;65339.31;;;-149.02;100.00
10097;BME280;5087;42.662;23.466;2023-09-19T06:47:31;65339.31;;;-149.02;100.00
10097;BME280;5087;42.662;23.466;2023-09-19T06:49:59;65339.31;;;-149.02;100.00
10097;BME280;5087;42.662;23.466;2023-09-19T06:52:29;65339.31;;;-149.02;100.00
10097;BME280;5087;42.662;23.466;2023-09-19T06:54:58;65339.31;;;-149.02;100.00
10097;BME280;5087;42.662;23.466;2023-09-19T06:57:25;65339.31;;;-149.02;100.00
10097;BME280;5087;42.662;23.466;2023-09-19T06:59:53;65339.31;;;-149.02;100.00
10097;BME280;5087;42.662;23.466;2023-09-19T07:02:20;65339.31;;;-149.02;100.00
10097;BME280;5087;42.662;23.466;2023-09-19T07:04:48;65339.31;;;-149.02;100.00
10097;BME280;5087;42.662;23.466;2023-09-19T07:07:15;65339.31;;;-149.02;100.00
10097;BME280;5087;42.662;23.466;2023-09-19T07:09:44;65339.31;;;-149.02;100.00
10097;BME280;5087;42.662;23.466;2023-09-19T07:12:14;65339.31;;;-149.02;100.00
10097;BME280;5087;42.662;23.466;2023-09-19T07:14:42;65339.31;;;-149.02;100.00
10097;BME280;5087;42.662;23.466;2023-09-19T07:17:09;65339.31;;;-149.02;100.00
10097;BME280;5087;42.662;23.466;2023-09-19T07:19:37;65339.31;;;-149.02;100.00
10097;BME280;5087;42.662;23.466;2023-09-19T07:22:04;65339.31;;;-149.02;100.00
10097;BME280;5087;42.662;23.466;2023-09-19T07:38:00;95684.22;;;18.24;100.00
10097;BME280;5087;42.662;23.466;2023-09-19T07:40:28;95681.84;;;18.42;100.00
10097;BME280;5087;42.662;23.466;2023-09-19T07:42:55;95681.34;;;18.20;100.00
10097;BME280;5087;42.662;23.466;2023-09-19T07:45:27;95663.69;;;18.01;100.00
10097;BME280;5087;42.662;23.466;2023-09-19T07:47:56;95649.16;;;17.85;100.00
10097;BME280;5087;42.662;23.466;2023-09-19T07:50:23;95676.97;;;17.99;100.00
10097;BME280;5087;42.662;23.466;2023-09-19T07:52:52;95687.66;;;18.21;100.00
10097;BME280;5087;42.662;23.466;2023-09-19T07:55:22;95674.91;;;18.12;100.00
10097;BME280;5087;42.662;23.466;2023-09-19T07:57:52;95670.69;;;18.34;100.00
10097;BME280;5087;42.662;23.466;2023-09-19T08:00:19;95660.16;;;18.56;100.00
10097;BME280;5087;42.662;23.466;2023-09-19T08:02:47;95676.88;;;19.06;100.00
10097;BME280;5087;42.662;23.466;2023-09-19T08:05:15;95685.03;;;18.83;100.00
10097;BME280;5087;42.662;23.466;2023-09-19T08:07:44;95670.03;;;18.80;100.00
10097;BME280;5087;42.662;23.466;2023-09-19T08:10:16;95677.44;;;18.96;100.00
10097;BME280;5087;42.662;23.466;2023-09-19T08:12:47;95672.50;;;19.05;100.00
10097;BME280;5087;42.662;23.466;2023-09-19T08:15:22;95657.66;;;18.90;100.00
10097;BME280;5087;42.662;23.466;2023-09-19T08:17:49;95672.06;;;19.46;100.00
10097;BME280;5087;42.662;23.466;2023-09-19T08:20:16;95660.41;;;19.10;100.00
10097;BME280;5087;42.662;23.466;2023-09-19T08:22:50;95660.81;;;19.82;100.00
10097;BME280;5087;42.662;23.466;2023-09-19T08:25:18;95655.25;;;19.78;100.00
10097;BME280;5087;42.662;23.466;2023-09-19T08:27:55;95653.25;;;20.29;100.00
10097;BME280;5087;42.662;23.466;2023-09-19T08:30:25;95635.91;;;20.59;100.00
10097;BME280;5087;42.662;23.466;2023-09-19T08:32:57;95646.63;;;20.64;100.00
10097;BME280;5087;42.662;23.466;2023-09-19T08:35:28;95645.94;;;20.40;100.00
10097;BME280;5087;42.662;23.466;2023-09-19T08:37:56;95635.47;;;20.53;100.00
10097;BME280;5087;42.662;23.466;2023-09-19T08:40:26;95631.38;;;20.43;100.00
10097;BME280;5087;42.662;23.466;2023-09-19T08:42:56;95643.91;;;20.37;100.00
10097;BME280;5087;42.662;23.466;2023-09-19T08:45:25;95636.94;;;20.77;100.00
10097;BME280;5087;42.662;23.466;2023-09-19T08:48:02;95638.38;;;21.39;100.00
10097;BME280;5087;42.662;23.466;2023-09-19T08:50:39;95641.19;;;21.46;100.00
10097;BME280;5087;42.662;23.466;2023-09-19T08:53:18;95633.97;;;21.76;100.00
10097;BME280;5087;42.662;23.466;2023-09-19T08:55:49;95618.41;;;22.16;100.00
10097;BME280;5087;42.662;23.466;2023-09-19T08:58:26;95630.44;;;22.45;100.00
10097;BME280;5087;42.662;23.466;2023-09-19T09:00:56;95635.31;;;22.70;100.00
10097;BME280;5087;42.662;23.466;2023-09-19T09:03:32;95626.19;;;21.96;100.00
10097;BME280;5087;42.662;23.466;2023-09-19T09:06:00;95638.91;;;21.14;100.00
10097;BME280;5087;42.662;23.466;2023-09-19T09:08:32;95632.66;;;21.17;100.00
10097;BME280;5087;42.662;23.466;2023-09-19T09:11:05;95629.38;;;21.98;100.00
10097;BME280;5087;42.662;23.466;2023-09-19T09:13:36;95619.47;;;21.93;100.00
10097;BME280;5087;42.662;23.466;2023-09-19T09:16:07;95626.81;;;21.26;100.00
10097;BME280;5087;42.662;23.466;2023-09-19T09:18:34;95622.31;;;21.11;100.00
10097;BME280;5087;42.662;23.466;2023-09-19T09:21:02;95600.81;;;20.90;100.00
10097;BME280;5087;42.662;23.466;2023-09-19T09:23:30;95604.31;;;20.52;100.00
10097;BME280;5087;42.662;23.466;2023-09-19T09:25:59;95603.91;;;20.84;100.00
10097;BME280;5087;42.662;23.466;2023-09-19T09:28:29;95609.59;;;21.44;100.00
10097;BME280;5087;42.662;23.466;2023-09-19T09:31:01;95602.50;;;21.91;100.00
10097;BME280;5087;42.662;23.466;2023-09-19T09:33:28;95608.91;;;22.13;100.00
10097;BME280;5087;42.662;23.466;2023-09-19T09:35:57;95611.66;;;21.54;100.00
10097;BME280;5087;42.662;23.466;2023-09-19T09:38:27;95607.00;;;21.62;100.00
10097;BME280;5087;42.662;23.466;2023-09-19T09:40:58;95607.88;;;21.73;100.00
10097;BME280;5087;42.662;23.466;2023-09-19T09:43:33;95601.25;;;21.85;100.00
10097;BME280;5087;42.662;23.466;2023-09-19T09:46:11;95591.00;;;22.59;100.00
10097;BME280;5087;42.662;23.466;2023-09-19T09:48:57;95581.53;;;22.64;100.00
10097;BME280;5087;42.662;23.466;2023-09-19T09:51:38;95569.34;;;23.88;100.00
10097;BME280;5087;42.662;23.466;2023-09-19T09:54:12;95572.88;;;24.14;100.00
10097;BME280;5087;42.662;23.466;2023-09-19T09:56:56;95568.56;;;23.87;100.00
10097;BME280;5087;42.662;23.466;2023-09-19T09:59:54;95558.50;;;24.41;100.00
10097;BME280;5087;42.662;23.466;2023-09-19T10:02:27;95561.13;;;24.80;99.29
10097;BME280;5087;42.662;23.466;2023-09-19T10:04:59;95563.78;;;24.17;100.00
10097;BME280;5087;42.662;23.466;2023-09-19T10:07:35;95557.88;;;23.10;100.00
10097;BME280;5087;42.662;23.466;2023-09-19T10:10:07;95558.59;;;22.67;100.00
10097;BME280;5087;42.662;23.466;2023-09-19T10:41:08;95534.94;;;23.10;100.00
10097;BME280;5087;42.662;23.466;2023-09-19T10:43:38;95524.63;;;22.70;100.00
10097;BME280;5087;42.662;23.466;2023-09-19T10:46:11;95501.75;;;23.28;100.00
10097;BME280;5087;42.662;23.466;2023-09-19T10:48:39;95515.97;;;23.33;100.00
10097;BME280;5087;42.662;23.466;2023-09-19T10:51:12;95523.88;;;23.10;100.00
10097;BME280;5087;42.662;23.466;2023-09-19T10:53:48;95504.50;;;23.35;100.00
10097;BME280;5087;42.662;23.466;2023-09-19T10:56:23;95521.50;;;23.62;100.00
10097;BME280;5087;42.662;23.466;2023-09-19T10:59:05;95507.19;;;22.66;100.00
10097;BME280;5087;42.662;23.466;2023-09-19T11:01:43;95520.25;;;22.62;100.00
10097;BME280;5087;42.662;23.466;2023-09-19T11:04:27;95523.06;;;22.84;100.00
10097;BME280;5087;42.662;23.466;2023-09-19T11:07:03;95507.19;;;22.66;100.00
10097;BME280;5087;42.662;23.466;2023-09-19T11:09:45;95508.44;;;23.48;100.00
10097;BME280;5087;42.662;23.466;2023-09-19T11:12:48;95521.09;;;23.02;100.00
10097;BME280;5087;42.662;23.466;2023-09-19T11:18:54;95513.56;;;23.71;100.00
10097;BME280;5087;42.662;23.466;2023-09-19T11:24:30;95497.38;;;23.45;100.00
10097;BME280;5087;42.662;23.466;2023-09-19T11:27:16;95498.03;;;24.03;98.96
10097;BME280;5087;42.662;23.466;2023-09-19T11:29:47;95496.03;;;24.07;99.34
10097;BME280;5087;42.662;23.466;2023-09-19T11:32:15;95490.53;;;23.96;99.38
10097;BME280;5087;42.662;23.466;2023-09-19T11:34:47;95484.59;;;24.79;95.43
10097;BME280;5087;42.662;23.466;2023-09-19T11:40:37;95463.31;;;23.62;100.00
10097;BME280;5087;42.662;23.466;2023-09-19T11:43:31;95465.75;;;24.42;97.95
10097;BME280;5087;42.662;23.466;2023-09-19T11:46:07;95466.78;;;23.84;100.00
10097;BME280;5087;42.662;23.466;2023-09-19T11:48:35;95477.19;;;23.41;100.00
10097;BME280;5087;42.662;23.466;2023-09-19T11:51:14;95463.69;;;23.57;100.00
10097;BME280;5087;42.662;23.466;2023-09-19T11:53:46;95454.50;;;23.96;100.00
10097;BME280;5087;42.662;23.466;2023-09-19T11:56:16;95458.13;;;23.75;100.00
10097;BME280;5087;42.662;23.466;2023-09-19T11:58:49;95427.28;;;23.62;100.00
10097;BME280;5087;42.662;23.466;2023-09-19T12:01:25;95431.56;;;23.78;100.00
10097;BME280;5087;42.662;23.466;2023-09-19T12:04:05;95434.31;;;23.89;100.00
10097;BME280;5087;42.662;23.466;2023-09-19T12:06:39;95440.13;;;24.20;100.00
10097;BME280;5087;42.662;23.466;2023-09-19T12:09:12;95440.63;;;23.96;99.71
10097;BME280;5087;42.662;23.466;2023-09-19T12:11:52;95411.72;;;23.90;100.00
10097;BME280;5087;42.662;23.466;2023-09-19T12:14:23;95424.66;;;24.22;100.00
10097;BME280;5087;42.662;23.466;2023-09-19T12:17:03;95438.31;;;24.58;97.73
10097;BME280;5087;42.662;23.466;2023-09-19T12:19:30;95389.69;;;24.92;93.46
10097;BME280;5087;42.662;23.466;2023-09-19T12:22:03;95418.59;;;25.02;91.58
10097;BME280;5087;42.662;23.466;2023-09-19T12:24:34;95438.63;;;24.75;97.45
10097;BME280;5087;42.662;23.466;2023-09-19T12:27:10;95433.38;;;24.24;100.00
10097;BME280;5087;42.662;23.466;2023-09-19T12:29:46;95399.31;;;24.20;100.00
10097;BME280;5087;42.662;23.466;2023-09-19T12:32:19;95424.28;;;24.80;100.00
10097;BME280;5087;42.662;23.466;2023-09-19T12:35:05;95410.56;;;24.58;96.28
10097;BME280;5087;42.662;23.466;2023-09-19T12:37:37;95398.13;;;25.96;86.12
10097;BME280;5087;42.662;23.466;2023-09-19T12:40:12;95390.78;;;25.05;89.81
10097;BME280;5087;42.662;23.466;2023-09-19T12:42:48;95367.81;;;24.97;91.51
10097;BME280;5087;42.662;23.466;2023-09-19T12:45:31;95411.25;;;25.22;90.80
10097;BME280;5087;42.662;23.466;2023-09-19T12:48:27;95404.25;;;25.07;93.06
10097;BME280;5087;42.662;23.466;2023-09-19T12:51:01;95357.25;;;24.85;93.31
10097;BME280;5087;42.662;23.466;2023-09-19T12:53:34;95386.41;;;25.04;94.99
10097;BME280;5087;42.662;23.466;2023-09-19T12:56:07;95403.47;;;25.03;95.10
10097;BME280;5087;42.662;23.466;2023-09-19T12:58:48;95356.66;;;24.56;92.97
10097;BME280;5087;42.662;23.466;2023-09-19T13:01:17;95401.63;;;25.31;92.90
10097;BME280;5087;42.662;23.466;2023-09-19T13:04:21;95399.41;;;25.15;89.59
10097;BME280;5087;42.662;23.466;2023-09-19T13:06:52;95395.56;;;25.01;91.90
10097;BME280;5087;42.662;23.466;2023-09-19T13:09:22;95387.94;;;25.12;94.10
10097;BME280;5087;42.662;23.466;2023-09-19T13:11:50;95394.00;;;25.42;89.15
10097;BME280;5087;42.662;23.466;2023-09-19T13:14:23;95390.66;;;25.58;88.68
10097;BME280;5087;42.662;23.466;2023-09-19T13:16:58;95379.03;;;25.28;88.99
10097;BME280;5087;42.662;23.466;2023-09-19T13:19:43;95375.91;;;25.61;88.67
10097;BME280;5087;42.662;23.466;2023-09-19T13:22:41;95351.56;;;26.31;84.01
10097;BME280;5087;42.662;23.466;2023-09-19T13:25:15;95367.84;;;26.32;85.18
10097;BME280;5087;42.662;23.466;2023-09-19T13:27:45;95343.19;;;25.38;87.40
10097;BME280;5087;42.662;23.466;2023-09-19T13:30:17;95353.19;;;26.01;86.45
10097;BME280;5087;42.662;23.466;2023-09-19T13:32:47;95355.72;;;26.46;86.00
10097;BME280;5087;42.662;23.466;2023-09-19T13:35:16;95356.31;;;26.03;85.03
10097;BME280;5087;42.662;23.466;2023-09-19T13:37:46;95336.50;;;25.70;87.41
10097;BME280;5087;42.662;23.466;2023-09-19T13:40:19;95363.97;;;25.64;88.27
10097;BME280;5087;42.662;23.466;2023-09-19T13:42:47;95365.28;;;25.52;88.01
10097;BME280;5087;42.662;23.466;2023-09-19T13:45:22;95349.97;;;24.99;91.15
10097;BME280;5087;42.662;23.466;2023-09-19T13:47:50;95342.38;;;25.03;91.44
10097;BME280;5087;42.662;23.466;2023-09-19T13:50:27;95349.94;;;25.40;92.35
10097;BME280;5087;42.662;23.466;2023-09-19T13:53:03;95351.78;;;25.16;91.25